Time;durP1;ratioP1;P1;durP2;ratioP2;P2;SDS_P1;SDS_P2;PMS_P1;PMS_P2;Temp;Humidity;BMP_temperature;BMP_pressure;BME280_temperature;BME280_humidity;BME280_pressure;Samples;Min_cycle;Max_cycle;Signal;HPM_P1;HPM_P2
2022/05/05 00:00:33;;;;;;;2.30;1.80;;;22.50;47.10;;;;;;4993384;28;20399;-61
2022/05/05 00:02:58;;;;;;;2.00;1.70;;;22.50;47.00;;;;;;4993958;28;20405;-61
2022/05/05 00:05:24;;;;;;;2.90;1.70;;;22.50;47.00;;;;;;4993777;28;20462;-61
2022/05/05 00:07:50;;;;;;;2.10;1.60;;;22.50;47.00;;;;;;4993929;28;20391;-62
2022/05/05 00:15:46;;;;;;;2.35;1.80;;;22.50;47.00;;;;;;4994013;28;20866;-61
2022/05/05 00:18:11;;;;;;;2.80;1.50;;;22.50;47.00;;;;;;4992476;28;20414;-61
2022/05/05 00:20:37;;;;;;;2.70;1.60;;;22.50;47.00;;;;;;4993153;28;20413;-61
2022/05/05 00:23:03;;;;;;;2.47;1.73;;;22.50;47.00;;;;;;4993636;28;20413;-62
2022/05/05 00:25:28;;;;;;;2.13;1.70;;;22.50;47.00;;;;;;4993394;28;20433;-61
2022/05/05 00:27:55;;;;;;;1.90;1.67;;;22.50;47.00;;;;;;4993567;28;20387;-61
2022/05/05 00:30:20;;;;;;;2.00;1.50;;;22.50;47.00;;;;;;4993304;28;20421;-61
2022/05/05 00:32:46;;;;;;;2.50;1.70;;;22.50;47.10;;;;;;4993221;28;20879;-62
2022/05/05 00:35:12;;;;;;;2.10;1.90;;;22.40;46.90;;;;;;4993232;28;20405;-61
2022/05/05 00:37:37;;;;;;;2.10;1.90;;;22.40;47.00;;;;;;4993138;28;20409;-61
2022/05/05 00:40:04;;;;;;;1.80;1.67;;;22.40;47.00;;;;;;4993252;28;20902;-61
2022/05/05 00:42:30;;;;;;;2.60;1.90;;;22.40;47.00;;;;;;4992792;28;20993;-62
2022/05/05 00:44:56;;;;;;;1.93;1.53;;;22.40;47.00;;;;;;4993121;28;20430;-61
2022/05/05 00:47:22;;;;;;;2.15;1.80;;;22.40;47.10;;;;;;4993088;28;20397;-61
2022/05/05 00:49:49;;;;;;;2.65;1.77;;;22.40;47.00;;;;;;4993186;28;20399;-61
2022/05/05 00:52:15;;;;;;;2.17;1.75;;;22.40;47.00;;;;;;4993150;28;20448;-61
2022/05/05 00:54:41;;;;;;;1.70;1.58;;;22.40;47.00;;;;;;4992543;28;20413;-61
2022/05/05 00:57:08;;;;;;;1.95;1.70;;;22.40;46.90;;;;;;4992984;28;20386;-61
2022/05/05 00:59:35;;;;;;;2.10;1.70;;;22.40;47.00;;;;;;4992908;28;20434;-61
2022/05/05 01:02:02;;;;;;;1.87;1.70;;;22.40;46.90;;;;;;4992938;28;20407;-61
2022/05/05 01:04:31;;;;;;;2.25;1.67;;;22.30;46.90;;;;;;4992244;28;20432;-62
2022/05/05 01:06:59;;;;;;;2.20;1.70;;;22.40;46.90;;;;;;4992461;28;20780;-61
2022/05/05 01:09:24;;;;;;;2.13;1.70;;;22.40;46.90;;;;;;4992187;28;20418;-61
2022/05/05 01:11:50;;;;;;;2.28;1.77;;;22.30;46.80;;;;;;4992525;28;20443;-61
2022/05/05 01:14:16;;;;;;;2.70;1.77;;;22.30;46.80;;;;;;4992633;28;20461;-62
2022/05/05 01:16:41;;;;;;;2.15;1.55;;;22.30;46.80;;;;;;4992125;28;20433;-61
2022/05/05 01:19:07;;;;;;;2.37;1.63;;;22.30;46.70;;;;;;4992690;28;20419;-61
2022/05/05 01:21:32;;;;;;;1.73;1.48;;;22.30;46.70;;;;;;4992493;28;20831;-62
2022/05/05 01:23:58;;;;;;;1.77;1.48;;;22.30;46.60;;;;;;4992487;28;20402;-61
2022/05/05 01:29:10;;;;;;;1.90;1.67;;;22.30;46.60;;;;;;4992462;28;20788;-62
2022/05/05 01:31:36;;;;;;;1.95;1.63;;;22.30;46.70;;;;;;4992259;28;20403;-61
2022/05/05 01:34:01;;;;;;;1.58;1.48;;;22.30;46.60;;;;;;4992402;28;20491;-61
2022/05/05 01:36:27;;;;;;;1.93;1.63;;;22.30;46.70;;;;;;4991879;28;20428;-61
2022/05/05 01:38:53;;;;;;;2.63;1.70;;;22.30;46.70;;;;;;4993186;28;20531;-62
2022/05/05 01:41:21;;;;;;;1.90;1.40;;;22.30;46.70;;;;;;4992138;28;20402;-62
2022/05/05 01:43:47;;;;;;;1.63;1.40;;;22.30;46.70;;;;;;4992385;28;20414;-61
2022/05/05 01:46:16;;;;;;;1.65;1.40;;;22.30;46.80;;;;;;4990981;28;20488;-61
2022/05/05 01:48:42;;;;;;;1.63;1.52;;;22.30;46.70;;;;;;4991719;28;20473;-61
2022/05/05 01:51:08;;;;;;;2.03;1.65;;;22.20;46.70;;;;;;4992114;28;20553;-61
2022/05/05 01:53:36;;;;;;;1.70;1.50;;;22.30;46.70;;;;;;4992114;28;20398;-61
2022/05/05 01:56:20;;;;;;;2.30;1.67;;;22.30;46.70;;;;;;4992044;28;20409;-61
2022/05/05 01:58:46;;;;;;;2.10;1.70;;;22.20;46.70;;;;;;4991791;28;20382;-62
2022/05/05 02:01:12;;;;;;;2.80;1.80;;;22.20;46.70;;;;;;4992150;28;20976;-61
2022/05/05 02:03:38;;;;;;;1.80;1.63;;;22.20;47.30;;;;;;4991948;28;20452;-62
2022/05/05 02:06:05;;;;;;;1.80;1.60;;;22.30;46.60;;;;;;4992151;28;20486;-61
2022/05/05 02:08:31;;;;;;;1.92;1.70;;;22.20;46.50;;;;;;4991471;28;20390;-61
2022/05/05 02:10:56;;;;;;;1.85;1.70;;;22.20;46.60;;;;;;4991863;28;20918;-62
2022/05/05 02:13:22;;;;;;;1.87;1.50;;;22.20;46.60;;;;;;4992034;28;20421;-62
2022/05/05 02:15:48;;;;;;;1.80;1.60;;;22.20;46.60;;;;;;4991961;28;20457;-61
2022/05/05 02:18:14;;;;;;;2.17;1.80;;;22.20;46.60;;;;;;4991912;28;20395;-62
2022/05/05 02:20:40;;;;;;;1.58;1.48;;;22.20;46.60;;;;;;4994859;28;20469;-61
2022/05/05 02:23:07;;;;;;;1.95;1.70;;;22.20;46.60;;;;;;4995833;28;20497;-61
2022/05/05 02:25:33;;;;;;;2.35;1.60;;;22.20;46.60;;;;;;4995693;28;20509;-61
2022/05/05 02:27:59;;;;;;;1.77;1.60;;;22.20;46.70;;;;;;4995760;28;20859;-61
2022/05/05 02:30:27;;;;;;;1.88;1.70;;;22.20;46.60;;;;;;4995432;28;20468;-61
2022/05/05 02:32:53;;;;;;;2.30;1.60;;;22.20;46.50;;;;;;4995475;28;20409;-61
2022/05/05 02:35:19;;;;;;;1.70;1.52;;;22.10;46.50;;;;;;4995603;28;20398;-61
2022/05/05 02:40:29;;;;;;;1.85;1.40;;;22.20;46.60;;;;;;4995552;28;20889;-61
2022/05/05 02:42:56;;;;;;;1.63;1.45;;;22.10;46.50;;;;;;4994223;28;20426;-61
2022/05/05 02:45:23;;;;;;;1.90;1.50;;;22.10;46.50;;;;;;4995268;28;20449;-61
2022/05/05 02:47:49;;;;;;;1.90;1.48;;;22.10;46.50;;;;;;4995395;28;20788;-62
2022/05/05 02:50:16;;;;;;;1.90;1.70;;;22.10;46.50;;;;;;4995393;28;20452;-61
2022/05/05 02:52:41;;;;;;;1.83;1.60;;;22.10;46.40;;;;;;4994797;28;20465;-62
2022/05/05 02:55:08;;;;;;;1.63;1.52;;;22.10;46.50;;;;;;4995304;28;20478;-61
2022/05/05 02:57:33;;;;;;;2.00;1.40;;;22.10;46.50;;;;;;4995131;28;20390;-62
2022/05/05 02:59:59;;;;;;;1.40;1.30;;;22.10;46.50;;;;;;4995202;28;20409;-61
2022/05/05 03:02:25;;;;;;;1.92;1.50;;;22.10;46.50;;;;;;4994817;28;20390;-61
2022/05/05 03:04:51;;;;;;;1.73;1.60;;;22.10;46.50;;;;;;4994713;28;20423;-62
2022/05/05 03:07:17;;;;;;;2.30;1.60;;;22.10;46.80;;;;;;4995017;28;20763;-62
2022/05/05 03:09:43;;;;;;;4.67;1.60;;;22.10;47.40;;;;;;4993811;28;20399;-62
2022/05/05 03:12:09;;;;;;;2.70;1.90;;;22.10;47.30;;;;;;4994658;28;20414;-61
2022/05/05 03:14:36;;;;;;;3.10;1.90;;;22.10;48.60;;;;;;4994414;28;20456;-61
2022/05/05 03:17:02;;;;;;;3.63;2.30;;;22.10;47.00;;;;;;4994800;28;20398;-61
2022/05/05 03:19:28;;;;;;;2.77;2.00;;;22.10;49.10;;;;;;4994786;28;20398;-61
2022/05/05 03:21:54;;;;;;;4.40;2.00;;;22.20;50.20;;;;;;4994830;28;20390;-62
2022/05/05 03:24:19;;;;;;;2.40;1.83;;;22.20;50.60;;;;;;4994620;28;20427;-62
2022/05/05 03:26:45;;;;;;;5.70;1.73;;;22.30;51.00;;;;;;4994115;28;20977;-62
2022/05/05 03:29:11;;;;;;;4.32;1.90;;;22.30;50.90;;;;;;4994594;28;20477;-61
2022/05/05 03:31:37;;;;;;;3.40;1.98;;;22.30;51.10;;;;;;4993854;28;20449;-62
2022/05/05 03:34:04;;;;;;;4.90;1.90;;;22.30;51.10;;;;;;4994569;28;20423;-61
2022/05/05 03:36:30;;;;;;;2.28;1.70;;;22.30;51.10;;;;;;4994141;28;20391;-62
2022/05/05 03:38:56;;;;;;;2.63;1.83;;;22.30;50.80;;;;;;4994212;28;20394;-62
2022/05/05 03:41:22;;;;;;;3.50;1.67;;;22.30;50.80;;;;;;4994416;28;20585;-62
2022/05/05 03:43:48;;;;;;;4.15;1.75;;;22.30;50.70;;;;;;4994301;28;20457;-61
2022/05/05 03:46:13;;;;;;;2.47;1.70;;;22.30;50.60;;;;;;4994279;28;20485;-62
2022/05/05 03:48:39;;;;;;;3.13;1.90;;;22.30;50.40;;;;;;4992557;28;20494;-62
2022/05/05 03:51:05;;;;;;;2.88;1.63;;;22.30;50.20;;;;;;4994335;28;20406;-62
2022/05/05 03:53:31;;;;;;;2.72;1.70;;;22.30;49.10;;;;;;4994132;28;20389;-61
2022/05/05 03:55:57;;;;;;;3.03;1.53;;;22.30;48.90;;;;;;4994232;28;20395;-62
2022/05/05 03:58:22;;;;;;;3.38;1.80;;;22.20;48.70;;;;;;4994004;28;20391;-62
2022/05/05 04:00:48;;;;;;;3.53;1.57;;;22.20;48.70;;;;;;4993786;28;20460;-61
2022/05/05 04:03:32;;;;;;;9.35;1.58;;;22.20;48.40;;;;;;4995592;28;20477;-62
2022/05/05 04:05:59;;;;;;;3.13;1.50;;;22.20;48.10;;;;;;4992667;28;20752;-62
2022/05/05 04:08:26;;;;;;;7.38;1.70;;;22.20;48.30;;;;;;4992350;28;20394;-61
2022/05/05 04:10:51;;;;;;;4.75;1.60;;;22.10;48.20;;;;;;4993028;28;20429;-62
2022/05/05 04:13:18;;;;;;;4.60;1.67;;;22.20;48.60;;;;;;4993658;28;20386;-63
2022/05/05 04:15:44;;;;;;;6.22;1.70;;;22.10;48.30;;;;;;4993512;28;20399;-62
2022/05/05 04:18:10;;;;;;;6.13;1.60;;;22.20;48.00;;;;;;4993619;28;20394;-62
2022/05/05 04:20:35;;;;;;;4.05;1.60;;;22.10;47.60;;;;;;4993201;28;20406;-61
2022/05/05 04:23:01;;;;;;;5.67;1.70;;;22.10;47.50;;;;;;4993490;28;20395;-62
2022/05/05 04:25:27;;;;;;;5.88;1.70;;;22.10;47.90;;;;;;4993395;28;20430;-62
2022/05/05 04:27:52;;;;;;;4.40;1.70;;;22.10;47.30;;;;;;4993391;28;20395;-62
2022/05/05 04:30:18;;;;;;;5.10;1.70;;;22.10;47.60;;;;;;4995266;28;20594;-64
2022/05/05 04:32:45;;;;;;;4.80;1.63;;;22.10;47.60;;;;;;5011742;28;20399;-62
2022/05/05 04:35:12;;;;;;;3.00;1.60;;;22.10;47.60;;;;;;5007920;28;20900;-62
2022/05/05 04:37:39;;;;;;;3.40;1.70;;;22.10;47.70;;;;;;5007702;28;20451;-62
2022/05/05 04:40:05;;;;;;;4.25;1.45;;;22.10;47.60;;;;;;5005416;28;20390;-62
2022/05/05 04:42:31;;;;;;;4.22;1.60;;;22.10;47.50;;;;;;4993348;28;20438;-62
2022/05/05 04:44:57;;;;;;;2.93;1.40;;;22.10;47.60;;;;;;4992854;28;20430;-62
2022/05/05 04:47:22;;;;;;;4.47;1.65;;;22.10;47.60;;;;;;5008380;28;20395;-62
2022/05/05 04:49:48;;;;;;;3.50;1.60;;;22.10;47.40;;;;;;4993170;28;20481;-61
2022/05/05 04:52:14;;;;;;;5.13;1.52;;;22.10;47.80;;;;;;4993048;28;20486;-61
2022/05/05 04:54:40;;;;;;;3.27;1.30;;;22.10;47.20;;;;;;4992497;28;20402;-62
2022/05/05 04:57:06;;;;;;;2.28;1.58;;;22.10;47.20;;;;;;4993010;28;20387;-61
2022/05/05 04:59:31;;;;;;;4.22;1.80;;;22.10;47.20;;;;;;4992844;28;20921;-62
2022/05/05 05:01:57;;;;;;;3.55;1.70;;;22.10;47.30;;;;;;5012105;28;20379;-62
2022/05/05 05:04:22;;;;;;;4.00;1.50;;;22.10;47.40;;;;;;5031665;28;20493;-62
2022/05/05 05:06:48;;;;;;;5.88;1.60;;;22.10;47.20;;;;;;5030992;28;20441;-62
2022/05/05 05:09:14;;;;;;;6.40;1.67;;;22.10;47.50;;;;;;5031564;28;20474;-62
2022/05/05 05:11:40;;;;;;;4.65;1.67;;;22.10;48.50;;;;;;5031670;28;20426;-62
2022/05/05 05:14:05;;;;;;;7.70;2.13;;;22.20;48.70;;;;;;5031459;28;20391;-62
2022/05/05 05:16:31;;;;;;;4.97;2.00;;;22.30;50.00;;;;;;5027330;28;20394;-62
2022/05/05 05:18:57;;;;;;;4.43;1.80;;;22.30;50.70;;;;;;5010476;28;20447;-62
2022/05/05 05:21:23;;;;;;;3.60;1.90;;;22.30;49.10;;;;;;5012108;28;20396;-61
2022/05/05 05:23:49;;;;;;;4.47;1.85;;;22.30;48.40;;;;;;5012037;28;20418;-61
2022/05/05 05:26:15;;;;;;;5.10;2.10;;;22.20;48.40;;;;;;5012013;28;20399;-61
2022/05/05 05:28:41;;;;;;;2.95;1.80;;;22.20;48.50;;;;;;5011336;28;20391;-62
2022/05/05 05:31:07;;;;;;;2.60;1.90;;;22.20;48.20;;;;;;5012004;28;20468;-62
2022/05/05 05:33:33;;;;;;;3.35;2.00;;;22.20;48.10;;;;;;5012001;28;20476;-61
2022/05/05 05:35:58;;;;;;;5.18;2.00;;;22.20;47.90;;;;;;5011966;28;20623;-62
2022/05/05 05:38:24;;;;;;;4.78;1.80;;;22.20;48.20;;;;;;5011905;28;20393;-61
2022/05/05 05:40:50;;;;;;;3.70;2.00;;;22.20;49.30;;;;;;5010888;28;20397;-61
2022/05/05 05:43:16;;;;;;;5.87;2.00;;;22.20;48.80;;;;;;5010825;28;20896;-61
2022/05/05 05:45:42;;;;;;;4.40;2.03;;;22.20;48.00;;;;;;5011404;28;20430;-61
2022/05/05 05:48:08;;;;;;;4.38;1.90;;;22.20;47.80;;;;;;5004894;28;20393;-61
2022/05/05 05:50:34;;;;;;;3.77;2.00;;;22.20;47.70;;;;;;5000079;28;20432;-61
2022/05/05 05:53:00;;;;;;;5.03;2.00;;;22.20;47.40;;;;;;4999087;28;20382;-61
2022/05/05 05:55:26;;;;;;;3.83;2.03;;;22.20;47.90;;;;;;5000917;28;20932;-61
2022/05/05 05:57:52;;;;;;;5.28;1.90;;;22.20;47.40;;;;;;5000859;28;20395;-61
2022/05/05 06:00:18;;;;;;;4.75;1.75;;;22.20;47.50;;;;;;4989114;28;20497;-61
2022/05/05 06:05:29;;;;;;;5.13;2.10;;;22.20;47.60;;;;;;4991714;28;20469;-61
2022/05/05 06:07:59;;;;;;;4.57;1.90;;;22.20;47.40;;;;;;4991722;28;20783;-61
2022/05/05 06:10:25;;;;;;;2.33;1.80;;;22.20;47.40;;;;;;4994721;28;20489;-61
2022/05/05 06:12:51;;;;;;;4.22;2.05;;;22.20;47.60;;;;;;5008485;28;20475;-61
2022/05/05 06:15:17;;;;;;;3.15;1.80;;;22.20;47.40;;;;;;5002557;28;20490;-60
2022/05/05 06:17:42;;;;;;;2.93;1.70;;;22.30;47.40;;;;;;5003033;28;20509;-61
2022/05/05 06:20:09;;;;;;;2.58;1.70;;;22.30;47.30;;;;;;5011387;28;20400;-61
2022/05/05 06:22:35;;;;;;;3.25;1.75;;;22.20;47.20;;;;;;5006107;28;20394;-62
2022/05/05 06:25:02;;;;;;;2.20;1.80;;;22.20;47.20;;;;;;4991513;28;20529;-61
2022/05/05 06:27:27;;;;;;;2.67;1.80;;;22.20;47.00;;;;;;4991651;28;20390;-61
2022/05/05 06:29:53;;;;;;;2.53;1.55;;;22.20;47.10;;;;;;4991737;28;20413;-61
2022/05/05 06:32:18;;;;;;;3.33;1.90;;;22.20;46.80;;;;;;4991532;28;20432;-61
2022/05/05 06:34:44;;;;;;;2.43;1.80;;;22.20;46.80;;;;;;4991223;28;20406;-61
2022/05/05 06:37:11;;;;;;;2.78;1.90;;;22.20;46.90;;;;;;4991701;28;20397;-61
2022/05/05 06:39:36;;;;;;;2.83;2.00;;;22.20;46.80;;;;;;4991625;28;20403;-61
2022/05/05 06:42:02;;;;;;;1.95;1.70;;;22.10;46.80;;;;;;4991550;28;20465;-61
2022/05/05 06:44:28;;;;;;;2.40;1.88;;;22.10;46.90;;;;;;4991271;28;20468;-61
2022/05/05 06:46:55;;;;;;;2.63;1.83;;;22.10;46.80;;;;;;4990961;28;20801;-61
2022/05/05 06:49:22;;;;;;;2.67;1.80;;;22.10;46.70;;;;;;4991465;28;20391;-61
2022/05/05 06:51:49;;;;;;;2.80;1.70;;;22.10;46.70;;;;;;4991219;28;20811;-61
2022/05/05 06:54:15;;;;;;;2.70;1.80;;;22.10;46.70;;;;;;4991279;28;20493;-60
2022/05/05 06:56:41;;;;;;;2.60;1.80;;;22.10;46.70;;;;;;4991166;28;20466;-60
2022/05/05 06:59:06;;;;;;;2.15;1.85;;;22.10;46.80;;;;;;4991130;28;20780;-61
2022/05/05 07:07:00;;;;;;;2.30;1.80;;;22.10;46.70;;;;;;4993125;28;20496;-60
2022/05/05 07:12:10;;;;;;;2.67;1.88;;;22.10;46.60;;;;;;4994541;28;20417;-60
2022/05/05 07:14:36;;;;;;;2.00;1.80;;;22.10;46.70;;;;;;5022565;28;20404;-61
2022/05/05 07:17:01;;;;;;;2.10;1.70;;;22.10;46.60;;;;;;5012481;28;20401;-61
2022/05/05 07:19:27;;;;;;;1.90;1.70;;;22.10;46.70;;;;;;5013875;28;20483;-61
2022/05/05 07:21:53;;;;;;;1.80;1.70;;;22.10;46.60;;;;;;5014076;28;20397;-61
2022/05/05 07:24:18;;;;;;;2.38;1.73;;;22.10;47.30;;;;;;5013916;28;20409;-61
2022/05/05 07:26:44;;;;;;;2.23;1.63;;;22.10;46.50;;;;;;5013624;28;20409;-61
2022/05/05 07:29:10;;;;;;;2.40;1.90;;;22.10;46.70;;;;;;5013605;28;20393;-61
2022/05/05 07:31:35;;;;;;;2.00;1.58;;;22.10;46.70;;;;;;5013845;28;20891;-61
2022/05/05 07:34:01;;;;;;;2.08;1.80;;;22.10;46.70;;;;;;5014211;28;20464;-61
2022/05/05 07:36:27;;;;;;;1.75;1.65;;;22.10;46.70;;;;;;5013532;28;20393;-61
2022/05/05 07:38:53;;;;;;;3.40;1.60;;;22.10;46.70;;;;;;5013166;28;20408;-61
2022/05/05 07:41:18;;;;;;;2.55;1.70;;;22.10;47.00;;;;;;5013618;28;20408;-61
2022/05/05 07:43:44;;;;;;;2.17;1.70;;;22.10;46.70;;;;;;5013758;28;20479;-61
2022/05/05 07:46:10;;;;;;;2.00;1.70;;;22.10;46.90;;;;;;5013683;28;20393;-61
2022/05/05 07:48:35;;;;;;;2.07;1.80;;;22.10;46.60;;;;;;5013535;28;20389;-61
2022/05/05 07:51:01;;;;;;;2.17;1.80;;;22.10;46.80;;;;;;5013061;28;20451;-60
2022/05/05 07:53:27;;;;;;;1.98;1.70;;;22.10;47.00;;;;;;5013490;28;20389;-61
2022/05/05 07:55:52;;;;;;;1.60;1.50;;;22.10;46.60;;;;;;5013631;28;20400;-61
2022/05/05 07:58:18;;;;;;;1.90;1.70;;;22.10;46.60;;;;;;5013188;28;20397;-61
2022/05/05 08:00:44;;;;;;;2.40;1.60;;;22.10;46.60;;;;;;5013139;28;20478;-61
2022/05/05 08:03:09;;;;;;;1.90;1.65;;;22.10;46.70;;;;;;5013063;28;20401;-61
2022/05/05 08:05:35;;;;;;;1.83;1.55;;;22.20;46.60;;;;;;5013260;28;20436;-61
2022/05/05 08:08:00;;;;;;;1.90;1.70;;;22.20;46.70;;;;;;5013313;28;20434;-61
2022/05/05 08:10:28;;;;;;;1.95;1.60;;;22.20;46.80;;;;;;5012913;28;20757;-61
2022/05/05 08:12:54;;;;;;;2.70;1.88;;;22.10;46.70;;;;;;5012624;28;20397;-61
2022/05/05 08:15:20;;;;;;;1.70;1.60;;;22.10;46.60;;;;;;5013134;28;20393;-61
2022/05/05 08:17:47;;;;;;;1.75;1.40;;;22.10;46.50;;;;;;5012851;28;20489;-61
2022/05/05 08:20:15;;;;;;;1.95;1.60;;;22.10;46.40;;;;;;5013048;28;20877;-61
2022/05/05 08:22:41;;;;;;;2.10;1.80;;;22.10;46.50;;;;;;5012982;28;20715;-61
2022/05/05 08:30:37;;;;;;;4.30;1.88;;;22.20;46.50;;;;;;5013005;28;20395;-61
2022/05/05 08:33:04;;;;;;;4.68;2.15;;;22.20;46.80;;;;;;5012193;28;20396;-62
2022/05/05 08:35:30;;;;;;;23.02;20.77;;;22.20;46.70;;;;;;5012630;28;20397;-62
2022/05/05 08:37:57;;;;;;;569.07;414.77;;;22.30;47.30;;;;;;5013333;28;20845;-68
2022/05/05 08:40:26;;;;;;;413.60;280.70;;;22.30;47.50;;;;;;5027790;28;20405;-62
2022/05/05 08:42:52;;;;;;;398.90;247.20;;;22.30;48.00;;;;;;5011949;28;20393;-62
2022/05/05 08:45:17;;;;;;;366.67;219.45;;;22.40;47.50;;;;;;5012503;28;20425;-63
2022/05/05 08:47:45;;;;;;;334.27;201.90;;;22.40;47.70;;;;;;5012522;28;20381;-62
2022/05/05 08:50:12;;;;;;;311.20;188.57;;;22.40;47.70;;;;;;5012240;28;20397;-62
2022/05/05 08:52:48;;;;;;;285.92;175.00;;;22.50;47.60;;;;;;5012004;28;20471;-62
2022/05/05 08:55:15;;;;;;;245.27;148.65;;;22.50;47.40;;;;;;5012025;28;20469;-62
2022/05/05 08:57:42;;;;;;;199.43;121.10;;;22.50;47.20;;;;;;5012207;28;20735;-62
2022/05/05 09:00:08;;;;;;;163.57;102.75;;;22.40;46.50;;;;;;5012237;28;20419;-62
2022/05/05 09:02:34;;;;;;;136.90;86.60;;;22.50;46.80;;;;;;5011812;28;20400;-62
2022/05/05 09:04:59;;;;;;;126.70;81.53;;;22.40;46.20;;;;;;5010109;28;20421;-62
2022/05/05 09:07:45;;;;;;;130.13;81.90;;;22.40;46.20;;;;;;5012010;28;20396;-62
2022/05/05 09:10:11;;;;;;;117.15;73.75;;;22.40;46.00;;;;;;5010612;28;20397;-62
2022/05/05 09:12:37;;;;;;;110.03;69.23;;;22.40;46.00;;;;;;5011453;28;20393;-63
2022/05/05 09:15:10;;;;;;;100.05;64.45;;;22.40;46.00;;;;;;5011465;28;20425;-62
2022/05/05 09:17:35;;;;;;;101.45;62.25;;;22.40;46.00;;;;;;5011862;28;20407;-62
2022/05/05 09:20:03;;;;;;;97.27;61.30;;;22.40;45.70;;;;;;5012237;28;20873;-62
2022/05/05 09:22:29;;;;;;;95.68;60.13;;;22.40;46.10;;;;;;5011754;28;20393;-62
2022/05/05 09:24:57;;;;;;;92.50;57.87;;;22.40;46.10;;;;;;5011237;28;20423;-62
2022/05/05 09:27:25;;;;;;;88.45;55.08;;;22.40;46.20;;;;;;5011605;28;20403;-62
2022/05/05 09:30:08;;;;;;;84.38;52.83;;;22.40;46.00;;;;;;5009845;28;20479;-62
2022/05/05 09:32:40;;;;;;;82.65;52.22;;;22.40;46.20;;;;;;5011217;28;20392;-62
2022/05/05 09:35:10;;;;;;;76.05;49.10;;;22.40;46.00;;;;;;5011165;28;20396;-62
2022/05/05 09:37:37;;;;;;;73.95;47.38;;;22.40;46.00;;;;;;5011357;28;20928;-62
2022/05/05 09:40:06;;;;;;;73.85;47.33;;;22.40;46.10;;;;;;5011616;28;20385;-62
2022/05/05 09:42:36;;;;;;;74.07;46.38;;;22.40;46.10;;;;;;5011273;28;20404;-62
2022/05/05 09:45:21;;;;;;;64.18;41.67;;;22.30;46.30;;;;;;5010626;28;20820;-62
2022/05/05 09:47:49;;;;;;;61.60;41.30;;;22.40;46.20;;;;;;5011178;28;20389;-62
2022/05/05 09:50:19;;;;;;;59.08;39.75;;;22.40;46.20;;;;;;5010557;28;20438;-62
2022/05/05 09:58:17;;;;;;;52.28;34.83;;;22.40;46.10;;;;;;5011174;28;20480;-62
2022/05/05 10:00:49;;;;;;;48.80;33.78;;;22.40;46.00;;;;;;5011289;28;20388;-62
2022/05/05 10:06:21;;;;;;;48.75;31.90;;;22.30;45.80;;;;;;5011315;28;20488;-62
2022/05/05 10:08:51;;;;;;;42.53;28.00;;;22.40;45.90;;;;;;5011244;28;20400;-62
2022/05/05 10:11:19;;;;;;;42.38;28.83;;;22.30;45.70;;;;;;5010587;28;20408;-63
2022/05/05 10:13:45;;;;;;;40.10;27.10;;;22.30;45.70;;;;;;5011142;28;20385;-62
2022/05/05 10:16:14;;;;;;;39.20;25.60;;;22.40;45.80;;;;;;5011215;28;20404;-62
2022/05/05 10:18:41;;;;;;;37.90;26.20;;;22.40;46.00;;;;;;5011223;28;20880;-61
2022/05/05 10:21:08;;;;;;;36.42;25.23;;;22.40;45.80;;;;;;5010570;28;20467;-62
2022/05/05 10:23:55;;;;;;;39.22;25.30;;;22.40;45.90;;;;;;5011191;28;20431;-62
2022/05/05 10:26:23;;;;;;;35.83;23.67;;;22.40;45.90;;;;;;5011120;28;20912;-62
2022/05/05 10:28:49;;;;;;;34.97;23.48;;;22.40;45.70;;;;;;5010527;28;20440;-63
2022/05/05 10:31:30;;;;;;;34.17;22.45;;;22.40;45.70;;;;;;5010477;28;21253;-62
2022/05/05 10:34:07;;;;;;;33.28;21.95;;;22.40;45.70;;;;;;5009661;28;20719;-62
2022/05/05 10:36:34;;;;;;;32.53;21.67;;;22.40;45.60;;;;;;5010890;28;20885;-62
2022/05/05 10:39:21;;;;;;;30.35;20.20;;;22.40;45.60;;;;;;5010634;28;20421;-62
2022/05/05 10:41:48;;;;;;;30.33;20.35;;;22.40;45.90;;;;;;5014520;28;20736;-62
2022/05/05 10:44:23;;;;;;;29.40;19.45;;;22.40;45.80;;;;;;5014613;28;20412;-62
2022/05/05 10:47:02;;;;;;;26.73;18.47;;;22.40;45.80;;;;;;5013822;28;20485;-62
2022/05/05 10:49:33;;;;;;;28.25;18.42;;;22.50;45.90;;;;;;5014675;28;20420;-63
2022/05/05 10:52:13;;;;;;;26.98;18.17;;;22.50;45.50;;;;;;5014584;28;20403;-63
2022/05/05 10:54:41;;;;;;;26.05;17.38;;;22.60;45.40;;;;;;5014621;28;20377;-62
2022/05/05 10:57:25;;;;;;;23.35;16.25;;;22.60;45.00;;;;;;5013936;28;20401;-62
2022/05/05 11:00:12;;;;;;;23.17;15.32;;;22.60;45.20;;;;;;5014876;28;20390;-62
2022/05/05 11:03:00;;;;;;;22.97;15.87;;;22.60;45.30;;;;;;5014451;28;20389;-63
2022/05/05 11:05:27;;;;;;;21.25;15.00;;;22.60;45.50;;;;;;5014277;28;20763;-63
2022/05/05 11:07:54;;;;;;;20.98;15.27;;;22.70;45.10;;;;;;5014413;28;20393;-62
2022/05/05 11:13:41;;;;;;;19.90;13.60;;;22.80;45.10;;;;;;5015356;28;20396;-63
2022/05/05 11:22:18;;;;;;;19.10;12.30;;;22.80;45.20;;;;;;5013942;28;20392;-62
2022/05/05 11:24:49;;;;;;;18.57;12.50;;;22.80;44.90;;;;;;5014120;28;20596;-62
2022/05/05 11:27:19;;;;;;;20.40;12.35;;;22.80;45.00;;;;;;5013779;28;20479;-63
2022/05/05 11:29:56;;;;;;;15.00;10.40;;;22.80;46.00;;;;;;5014260;28;20483;-62
2022/05/05 11:32:32;;;;;;;15.73;9.95;;;22.80;46.30;;;;;;5013727;28;20389;-62
2022/05/05 11:34:59;;;;;;;17.70;11.05;;;22.80;46.00;;;;;;5013452;28;20415;-62
2022/05/05 11:37:29;;;;;;;13.07;9.65;;;22.90;46.70;;;;;;5013672;28;20757;-63
2022/05/05 11:39:55;;;;;;;13.50;8.23;;;22.90;45.50;;;;;;5013721;28;20964;-62
2022/05/05 11:42:21;;;;;;;11.30;7.82;;;23.00;45.80;;;;;;5013669;28;20802;-62
2022/05/05 11:44:48;;;;;;;10.00;7.18;;;23.00;46.70;;;;;;5012373;28;20463;-62
2022/05/05 11:47:22;;;;;;;10.52;7.40;;;22.90;45.80;;;;;;5011755;28;20451;-62
2022/05/05 11:49:51;;;;;;;12.10;7.80;;;22.90;46.10;;;;;;5013440;28;20803;-63
2022/05/05 11:52:22;;;;;;;10.43;7.35;;;23.00;45.60;;;;;;5012756;28;20400;-63
2022/05/05 11:54:49;;;;;;;10.95;7.50;;;23.10;44.90;;;;;;5013403;28;20383;-62
2022/05/05 11:57:38;;;;;;;10.95;7.10;;;23.10;44.70;;;;;;5012744;28;20389;-62
2022/05/05 12:02:51;;;;;;;10.32;7.13;;;23.00;45.80;;;;;;5026106;28;20472;-62
2022/05/05 12:05:18;;;;;;;9.63;6.90;;;23.00;45.10;;;;;;5012894;28;20515;-62
2022/05/05 12:07:46;;;;;;;10.15;7.00;;;23.10;45.20;;;;;;5013667;28;20419;-62
2022/05/05 12:10:14;;;;;;;9.02;6.28;;;23.10;44.80;;;;;;5013168;28;20420;-62
2022/05/05 12:12:52;;;;;;;9.30;6.47;;;23.10;44.70;;;;;;5013000;28;20480;-62
2022/05/05 12:15:20;;;;;;;8.13;6.28;;;23.10;44.70;;;;;;5012570;28;20865;-62
2022/05/05 12:17:52;;;;;;;8.45;6.15;;;23.10;44.80;;;;;;5013064;28;20447;-63
2022/05/05 12:20:20;;;;;;;8.02;6.05;;;23.00;45.00;;;;;;5012814;28;20484;-63
2022/05/05 12:22:55;;;;;;;8.60;6.15;;;23.10;44.90;;;;;;5012929;28;20384;-62
2022/05/05 12:25:21;;;;;;;8.63;6.20;;;23.10;44.60;;;;;;5027661;28;20424;-62
2022/05/05 12:28:04;;;;;;;7.40;5.78;;;23.10;44.60;;;;;;5012939;28;20392;-62
2022/05/05 12:30:43;;;;;;;7.35;5.40;;;23.10;44.80;;;;;;5012668;28;20400;-62
2022/05/05 12:33:20;;;;;;;8.15;5.85;;;23.10;44.70;;;;;;5012338;28;20444;-62
2022/05/05 12:35:46;;;;;;;7.18;5.25;;;23.10;44.80;;;;;;5012736;28;20458;-62
2022/05/05 12:38:16;;;;;;;7.00;5.10;;;23.10;44.60;;;;;;5012727;28;20476;-62
2022/05/05 12:40:44;;;;;;;7.63;5.38;;;23.20;44.60;;;;;;5012601;28;20380;-62
2022/05/05 12:43:19;;;;;;;6.68;5.28;;;23.20;44.40;;;;;;5012128;28;20897;-62
2022/05/05 12:45:48;;;;;;;5.63;4.70;;;23.10;44.50;;;;;;5012462;28;20881;-62
2022/05/05 12:48:13;;;;;;;6.30;4.72;;;23.10;44.60;;;;;;5011154;28;20397;-63
2022/05/05 12:50:51;;;;;;;5.68;4.90;;;23.10;44.60;;;;;;5012476;28;20396;-63
2022/05/05 13:01:42;;;;;;;5.68;4.57;;;23.10;44.40;;;;;;5012261;28;20496;-64
2022/05/05 13:04:12;;;;;;;6.50;4.77;;;23.10;44.50;;;;;;5011327;28;20385;-64
2022/05/05 13:06:39;;;;;;;5.97;4.85;;;23.10;44.60;;;;;;5012176;28;20400;-63
2022/05/05 13:09:08;;;;;;;6.65;4.60;;;23.20;44.50;;;;;;5011524;28;20443;-63
2022/05/05 13:11:34;;;;;;;5.85;4.40;;;23.20;44.40;;;;;;5011917;28;20413;-64
2022/05/05 13:14:02;;;;;;;5.00;4.00;;;23.20;44.40;;;;;;5012136;28;20391;-63
2022/05/05 13:16:28;;;;;;;4.72;4.10;;;23.10;44.50;;;;;;5011822;28;20393;-63
2022/05/05 13:18:54;;;;;;;4.65;4.10;;;23.10;44.50;;;;;;5011278;28;20389;-63
2022/05/05 13:21:19;;;;;;;5.47;4.30;;;23.10;44.60;;;;;;5011192;28;20403;-63
2022/05/05 13:23:45;;;;;;;5.18;4.30;;;23.10;44.50;;;;;;5012180;28;20400;-64
2022/05/05 13:26:11;;;;;;;5.27;4.20;;;23.20;44.40;;;;;;5011955;28;20912;-64
2022/05/05 13:28:37;;;;;;;5.18;4.00;;;23.20;44.40;;;;;;5012006;28;20411;-63
2022/05/05 13:31:03;;;;;;;6.60;4.00;;;23.10;44.50;;;;;;5011580;28;20456;-63
2022/05/05 13:33:29;;;;;;;6.13;4.07;;;23.10;44.50;;;;;;5026866;28;21100;-63
2022/05/05 13:35:55;;;;;;;5.77;4.37;;;23.10;44.60;;;;;;5011798;28;20401;-64
2022/05/05 13:38:23;;;;;;;4.72;3.90;;;23.10;44.50;;;;;;5011736;28;20427;-63